Terminal Aerodrome Forecast
Issued by NWS Albuquerque, NM

Home | Current Version | Previous Version | Text Only | Print | Product List | Glossary On
Versions: 1 2 3 4 5 6 7 8 9 10 11 12 13 14 15 16 17 18 19
000
FTUS45 KABQ 221739
TAFABQ
TAF
KABQ 221739Z 2218/2318 34008KT P6SM VCSH BKN030
     FM221900 26015G25KT P6SM VCSH BKN060
     FM222300 27012G24KT P6SM FEW070
     FM230300 30005KT P6SM SKC=

USA.gov is the U.S. government's official web portal to all federal, state and local government web resources and services.